Météo Nord-Pas-de-Calais   La météo au plus près de chez vous

Station météorologique

Observations météo à Colognac (30087)

30087002 589 m Dernier relevé à 07:18
16.6°C
Humidité 61 % Vent 5 km/h

Journée consultée

Samedi 5 Septembre 2026

Synthèse de la journée

Périodes de référence en UTC

Température maximale

32.9°C

à 16:00

06h 06h

Température minimale

16.5°C

à 07:12

18h 18h

Rafale maximale

28 km/h

à 02:06

00h 00h

Précipitations

0 mm

Cumul quotidien

06h 06h

Graphiques de la journée

Heure locale Réduire

Données détaillées

Relevés météo

Pas de 6 minutes Afficher les relevés infra-horaires
Relevés météo détaillés à Colognac pour le Samedi 5 Septembre 2026
Heure Température °C Point de rosée °C Humidité % Vent moyen (raf.), km/h Précipitations mm
07:18 16.6 °C 10.4 °C 67 % 4 km/h (10 km/h) 0 mm0 mm
07:12 16.5 °C 10.3 °C 67 % 3 km/h (8 km/h) 0 mm0 mm
07:06 16.9 °C 10.5 °C 66 % 4 km/h (8 km/h) 0 mm0 mm
07:00 17.3 °C 10.4 °C 64 % 5 km/h (12 km/h) 0 mm0 mm
06:54 17.1 °C 10.2 °C 64 % 4 km/h (12 km/h) 0 mm0 mm
06:48 17.3 °C 10.4 °C 64 % 4 km/h (9 km/h) 0 mm0 mm
06:42 17.6 °C 10.2 °C 62 % 5 km/h (9 km/h) 0 mm0 mm
06:36 17.9 °C 10.3 °C 61 % 5 km/h (10 km/h) 0 mm0 mm
06:30 17.8 °C 10.4 °C 62 % 5 km/h (13 km/h) 0 mm0 mm
06:24 18.1 °C 10.2 °C 60 % 6 km/h (13 km/h) 0 mm0 mm
06:18 18.2 °C 10.6 °C 61 % 5 km/h (9 km/h) 0 mm0 mm
06:12 18.3 °C 10.1 °C 59 % 3 km/h (7 km/h) 0 mm0 mm
06:06 18.7 °C 10.3 °C 58 % 4 km/h (8 km/h) 0 mm0 mm
06:00 18.9 °C 10.2 °C 57 % 5 km/h (8 km/h) 0 mm0 mm
05:54 19.3 °C 10 °C 55 % 4 km/h (7 km/h) 0 mm0 mm
05:48 19.7 °C 10.4 °C 55 % 4 km/h (8 km/h) 0 mm0 mm
05:42 20.5 °C 10.6 °C 53 % 4 km/h (8 km/h) 0 mm0 mm
05:36 20.8 °C 10.3 °C 51 % 4 km/h (8 km/h) 0 mm0 mm
05:30 21.4 °C 9.9 °C 48 % 4 km/h (8 km/h) 0 mm0 mm
05:24 21.8 °C 10.3 °C 48 % 3 km/h (7 km/h) 0 mm0 mm
05:18 22.4 °C 10.5 °C 47 % 2 km/h (5 km/h) 0 mm0 mm
05:12 22.4 °C 10.2 °C 46 % 3 km/h (9 km/h) 0 mm0 mm
05:06 22.5 °C 10 °C 45 % 3 km/h (9 km/h) 0 mm0 mm
05:00 22.8 °C 9.9 °C 44 % 3 km/h (10 km/h) 0 mm0 mm
04:54 23.6 °C 10.3 °C 43 % 2 km/h (8 km/h) 0 mm0 mm
04:48 24.1 °C 9.7 °C 40 % 4 km/h (13 km/h) 0 mm0 mm
04:42 23.8 °C 9.4 °C 40 % 4 km/h (13 km/h) 0 mm0 mm
04:36 24.4 °C 9.5 °C 39 % 3 km/h (15 km/h) 0 mm0 mm
04:30 24.8 °C 9.5 °C 38 % 4 km/h (19 km/h) 0 mm0 mm
04:24 24.7 °C 9.4 °C 38 % 4 km/h (14 km/h) 0 mm0 mm
04:18 25 °C 8.9 °C 36 % 5 km/h (14 km/h) 0 mm0 mm
04:12 25.1 °C 9 °C 36 % 5 km/h (14 km/h) 0 mm0 mm
04:06 25.3 °C 8.7 °C 35 % 4 km/h (11 km/h) 0 mm0 mm
04:00 25.4 °C 8.8 °C 35 % 6 km/h (17 km/h) 0 mm0 mm
03:54 25.4 °C 8.8 °C 35 % 5 km/h (15 km/h) 0 mm0 mm
03:48 25.2 °C 8.6 °C 35 % 4 km/h (12 km/h) 0 mm0 mm
03:42 25.4 °C 8.4 °C 34 % 5 km/h (18 km/h) 0 mm0 mm
03:36 25.7 °C 9.1 °C 35 % 5 km/h (18 km/h) 0 mm0 mm
03:30 25.8 °C 8.7 °C 34 % 5 km/h (17 km/h) 0 mm0 mm
03:24 25.8 °C 8.3 °C 33 % 4 km/h (17 km/h) 0 mm0 mm
03:18 26.1 °C 8.6 °C 33 % 5 km/h (19 km/h) 0 mm0 mm
03:12 26.2 °C 8.7 °C 33 % 7 km/h (19 km/h) 0 mm0 mm
03:06 26.1 °C 8.6 °C 33 % 6 km/h (15 km/h) 0 mm0 mm
03:00 26 °C 8.9 °C 34 % 7 km/h (17 km/h) 0 mm0 mm
02:54 26.1 °C 9 °C 34 % 7 km/h (21 km/h) 0 mm0 mm
02:48 26 °C 8.5 °C 33 % 6 km/h (23 km/h) 0 mm0 mm
02:42 26.3 °C 8.7 °C 33 % 8 km/h (23 km/h) 0 mm0 mm
02:36 26.1 °C 9 °C 34 % 7 km/h (23 km/h) 0 mm0 mm
02:30 26 °C 8.9 °C 34 % 7 km/h (28 km/h) 0 mm0 mm
02:24 26.3 °C 9.2 °C 34 % 8 km/h (28 km/h) 0 mm0 mm
02:18 26.4 °C 8.8 °C 33 % 7 km/h (28 km/h) 0 mm0 mm
02:12 26.8 °C 8.7 °C 32 % 9 km/h (28 km/h) 0 mm0 mm
02:06 26.8 °C 8.7 °C 32 % 11 km/h (28 km/h) 0 mm0 mm
02:00 27.1 °C 9 °C 32 % 13 km/h (32 km/h) 0 mm0 mm
01:54 26.9 °C 8.8 °C 32 % 11 km/h (29 km/h) 0 mm0 mm
01:48 26.7 °C 9.1 °C 33 % 9 km/h (29 km/h) 0 mm0 mm
01:42 26.7 °C 9.1 °C 33 % 10 km/h (37 km/h) 0 mm0 mm
01:36 27 °C 8.9 °C 32 % 10 km/h (37 km/h) 0 mm0 mm
01:30 26.9 °C 8.8 °C 32 % 11 km/h (29 km/h) 0 mm0 mm
01:24 27.1 °C 8.5 °C 31 % 10 km/h (26 km/h) 0 mm0 mm
01:18 27.2 °C 8.6 °C 31 % 9 km/h (25 km/h) 0 mm0 mm
01:12 27.2 °C 8.6 °C 31 % 9 km/h (27 km/h) 0 mm0 mm
01:06 27.4 °C 7.8 °C 29 % 12 km/h (36 km/h) 0 mm0 mm
01:00 27.5 °C 7.4 °C 28 % 10 km/h (36 km/h) 0 mm0 mm
00:54 27.5 °C 7.4 °C 28 % 9 km/h (29 km/h) 0 mm0 mm
00:48 27.5 °C 6.3 °C 26 % 9 km/h (28 km/h) 0 mm0 mm
00:42 27.4 °C 6.2 °C 26 % 10 km/h (29 km/h) 0 mm0 mm
00:36 27.4 °C 6.2 °C 26 % 10 km/h (29 km/h) 0 mm0 mm
00:30 27.4 °C 5.6 °C 25 % 10 km/h (28 km/h) 0 mm0 mm
00:24 26.8 °C 4.5 °C 24 % 9 km/h (26 km/h) 0 mm0 mm
00:18 25.5 °C 5.1 °C 27 % 8 km/h (21 km/h) 0 mm0 mm
00:12 23.4 °C 5.8 °C 32 % 5 km/h (18 km/h) 0 mm0 mm
00:06 21.3 °C 6.4 °C 38 % 4 km/h (18 km/h) 0 mm0 mm
00:00 20 °C 8.6 °C 48 % 4 km/h (10 km/h) 0 mm0 mm

Données via Météo-France

Relevés météo à Colognac

Cette page rassemble les observations de la station de Colognac : température, humidité, vent, précipitations et pression atmosphérique. Les graphiques facilitent le suivi de la journée, tandis que le tableau donne accès aux mesures horaires et infra-horaires disponibles.

Pour replacer ces mesures dans leur contexte, consultez la climatologie de Colognac ainsi que ses normales et records. Retrouvez aussi la carte des observations météo en temps réel.